createdAt,value
2019-05-25T00:01:16.165Z,7.50
2019-05-25T00:03:49.057Z,6.97
2019-05-25T00:06:17.934Z,7.17
2019-05-25T00:08:49.324Z,6.70
2019-05-25T00:11:18.117Z,7.00
2019-05-25T00:13:46.679Z,7.33
2019-05-25T00:16:19.894Z,7.47
2019-05-25T00:18:48.504Z,6.80
2019-05-25T00:21:17.056Z,6.53
2019-05-25T00:23:45.695Z,9.07
2019-05-25T00:26:14.219Z,7.83
2019-05-25T00:28:43.726Z,8.67
2019-05-25T00:31:13.734Z,8.68
2019-05-25T00:33:42.295Z,9.27
2019-05-25T00:36:10.759Z,8.70
2019-05-25T00:38:40.763Z,8.97
2019-05-25T00:41:09.267Z,9.67
2019-05-25T00:43:38.942Z,10.63
2019-05-25T00:46:07.477Z,10.05
2019-05-25T00:48:36.055Z,10.87
2019-05-25T00:51:06.019Z,11.43
2019-05-25T00:53:38.881Z,10.10
2019-05-25T00:56:07.466Z,11.33
2019-05-25T00:58:39.052Z,11.90
2019-05-25T01:01:14.593Z,12.07
2019-05-25T01:03:38.765Z,10.73
2019-05-25T01:06:09.535Z,11.03
2019-05-25T01:08:38.211Z,11.90
2019-05-25T01:11:10.171Z,12.30
2019-05-25T01:13:39.863Z,12.03
2019-05-25T01:16:10.105Z,14.43
2019-05-25T01:18:40.529Z,13.15
2019-05-25T01:21:10.120Z,13.20
2019-05-25T01:23:42.321Z,13.27
2019-05-25T01:26:10.782Z,13.20
2019-05-25T01:28:39.329Z,13.83
2019-05-25T01:31:07.849Z,16.43
2019-05-25T01:33:36.520Z,15.03
2019-05-25T01:36:05.402Z,16.05
2019-05-25T01:38:35.446Z,14.33
2019-05-25T01:41:03.942Z,14.10
2019-05-25T01:43:34.212Z,14.93
2019-05-25T01:46:02.730Z,15.07
2019-05-25T01:48:31.280Z,14.87
2019-05-25T01:50:59.812Z,15.17
2019-05-25T01:53:28.503Z,15.35
2019-05-25T01:55:57.022Z,15.00
2019-05-25T01:58:25.576Z,15.70
2019-05-25T02:00:54.145Z,14.28
2019-05-25T02:03:28.283Z,15.83
2019-05-25T02:05:57.978Z,14.33
2019-05-25T02:08:26.668Z,15.33
2019-05-25T02:10:55.223Z,13.87
2019-05-25T02:13:23.856Z,15.50
2019-05-25T02:15:55.535Z,15.93
2019-05-25T02:18:23.999Z,16.80
2019-05-25T02:20:54.110Z,16.17
2019-05-25T02:23:22.674Z,16.97
2019-05-25T02:25:51.309Z,16.43
2019-05-25T02:28:19.833Z,16.80
2019-05-25T02:30:49.718Z,16.50
2019-05-25T02:33:18.260Z,16.33
2019-05-25T02:35:49.530Z,18.30
2019-05-25T02:38:18.087Z,17.23
2019-05-25T02:40:48.080Z,19.07
2019-05-25T02:43:17.296Z,18.30
2019-05-25T02:45:49.648Z,17.13
2019-05-25T02:48:19.723Z,16.97
2019-05-25T02:50:52.933Z,17.60
2019-05-25T02:53:23.694Z,17.53
2019-05-25T02:55:53.803Z,18.67
2019-05-25T02:58:25.075Z,18.33
2019-05-25T03:00:53.836Z,19.10
2019-05-25T03:03:24.815Z,18.77
2019-05-25T03:05:57.806Z,18.43
2019-05-25T03:08:26.464Z,18.98
2019-05-25T03:10:57.398Z,18.20
2019-05-25T03:13:32.403Z,20.57
2019-05-25T03:16:02.255Z,18.17
2019-05-25T03:18:32.164Z,20.80
2019-05-25T03:21:00.630Z,19.70
2019-05-25T03:23:29.126Z,19.37
2019-05-25T03:25:57.621Z,19.60
2019-05-25T03:28:27.184Z,20.50
2019-05-25T03:30:55.772Z,19.42
2019-05-25T03:33:27.453Z,19.40
2019-05-25T03:35:55.927Z,20.90
2019-05-25T03:38:27.233Z,21.17
2019-05-25T03:40:56.852Z,20.20
2019-05-25T03:43:27.967Z,19.20
2019-05-25T03:45:57.645Z,19.53
2019-05-25T03:48:26.199Z,21.23
2019-05-25T03:50:56.308Z,20.00
2019-05-25T03:53:25.923Z,21.43
2019-05-25T03:56:05.328Z,21.50
2019-05-25T03:58:24.747Z,20.70
2019-05-25T04:00:55.456Z,20.10
2019-05-25T04:03:25.293Z,19.77
2019-05-25T04:05:54.865Z,20.33
2019-05-25T04:08:23.414Z,20.37
2019-05-25T04:10:53.105Z,20.47
2019-05-25T04:13:21.845Z,20.13
2019-05-25T04:15:53.010Z,20.67
2019-05-25T04:18:23.116Z,20.73
2019-05-25T04:20:52.389Z,20.30
2019-05-25T04:23:20.951Z,21.17
2019-05-25T04:25:49.497Z,19.92
2019-05-25T04:28:17.976Z,20.73
2019-05-25T04:30:48.075Z,19.80
2019-05-25T04:33:16.541Z,19.80
2019-05-25T04:35:46.634Z,20.53
2019-05-25T04:38:15.099Z,19.30
2019-05-25T04:40:44.593Z,20.45
2019-05-25T04:43:13.144Z,19.02
2019-05-25T04:45:41.643Z,21.10
2019-05-25T04:48:10.190Z,22.17
2019-05-25T04:50:40.767Z,18.83
2019-05-25T04:53:10.339Z,19.50
2019-05-25T04:55:43.049Z,19.73
2019-05-25T04:58:13.073Z,18.97
2019-05-25T05:00:42.911Z,19.67
2019-05-25T05:03:12.513Z,20.45
2019-05-25T05:05:41.007Z,20.50
2019-05-25T05:08:09.645Z,19.87
2019-05-25T05:10:38.126Z,18.90
2019-05-25T05:13:07.999Z,19.27
2019-05-25T05:15:40.085Z,19.50
2019-05-25T05:18:12.852Z,17.63
2019-05-25T05:20:41.404Z,18.80
2019-05-25T05:23:11.048Z,18.10
2019-05-25T05:25:39.557Z,18.97
2019-05-25T05:28:08.102Z,17.40
2019-05-25T05:30:39.967Z,18.62
2019-05-25T05:33:10.367Z,18.20
2019-05-25T05:35:39.394Z,17.90
2019-05-25T05:38:09.056Z,20.25
2019-05-25T05:40:37.692Z,19.67
2019-05-25T05:43:11.015Z,20.63
2019-05-25T05:45:44.382Z,21.50
2019-05-25T05:48:16.059Z,20.80
2019-05-25T05:50:46.200Z,19.57
2019-05-25T05:53:14.741Z,19.57
2019-05-25T05:55:43.330Z,17.57
2019-05-25T05:58:13.182Z,17.90
2019-05-25T06:00:42.899Z,16.17
2019-05-25T06:03:11.444Z,15.40
2019-05-25T06:05:39.906Z,15.63
2019-05-25T06:08:11.491Z,14.37
2019-05-25T06:10:41.269Z,14.33
2019-05-25T06:13:09.816Z,13.20
2019-05-25T06:15:43.804Z,12.83
2019-05-25T06:18:12.367Z,12.73
2019-05-25T06:20:41.874Z,11.47
2019-05-25T06:23:12.518Z,11.87
2019-05-25T06:25:40.607Z,11.80
2019-05-25T06:28:09.182Z,10.90
2019-05-25T06:30:38.703Z,10.00
2019-05-25T06:33:07.181Z,10.80
2019-05-25T06:35:35.796Z,9.07
2019-05-25T06:38:05.083Z,9.50
2019-05-25T06:40:33.732Z,8.50
2019-05-25T06:43:03.301Z,8.47
2019-05-25T06:45:31.934Z,8.13
2019-05-25T06:48:04.272Z,8.50
2019-05-25T06:50:33.609Z,8.87
2019-05-25T06:53:02.266Z,7.80
2019-05-25T06:55:30.745Z,7.40
2019-05-25T06:57:59.231Z,6.53
2019-05-25T07:00:30.991Z,6.10
2019-05-25T07:02:59.679Z,5.93
2019-05-25T07:05:28.156Z,6.50
2019-05-25T07:07:57.425Z,6.20
2019-05-25T07:10:27.524Z,5.83
2019-05-25T07:12:56.084Z,5.35
2019-05-25T07:15:27.324Z,5.73
2019-05-25T07:17:55.851Z,5.20
2019-05-25T07:20:27.944Z,6.17
2019-05-25T07:22:56.566Z,6.37
2019-05-25T07:25:27.760Z,5.30
2019-05-25T07:28:00.125Z,4.40
2019-05-25T07:30:28.509Z,4.33
2019-05-25T07:32:58.536Z,5.30
2019-05-25T07:35:27.104Z,5.67
2019-05-25T07:37:58.429Z,5.43
2019-05-25T07:40:26.924Z,6.00
2019-05-25T07:42:59.403Z,5.93
2019-05-25T07:45:27.893Z,6.03
2019-05-25T07:47:57.908Z,5.30
2019-05-25T07:50:26.409Z,5.70
2019-05-25T07:52:57.055Z,6.07
2019-05-25T07:55:25.525Z,5.57
2019-05-25T07:57:57.109Z,6.00
2019-05-25T08:00:26.335Z,5.40
2019-05-25T08:02:57.693Z,5.73
2019-05-25T08:05:26.243Z,5.65
2019-05-25T08:07:54.756Z,5.83
2019-05-25T08:10:23.287Z,5.97
2019-05-25T08:12:51.793Z,5.07
2019-05-25T08:15:23.219Z,5.03
2019-05-25T08:17:51.696Z,6.30
2019-05-25T08:20:21.167Z,5.13
2019-05-25T08:22:53.139Z,5.73
2019-05-25T08:25:21.705Z,5.53
2019-05-25T08:27:51.411Z,4.83
2019-05-25T08:30:21.456Z,4.90
2019-05-25T08:32:50.131Z,5.77
2019-05-25T08:35:18.601Z,4.87
2019-05-25T08:37:47.201Z,4.50
2019-05-25T08:40:18.918Z,5.23
2019-05-25T08:42:47.518Z,5.70
2019-05-25T08:45:20.297Z,4.97
2019-05-25T08:47:48.851Z,4.80
2019-05-25T08:50:19.337Z,5.10
2019-05-25T08:52:48.015Z,5.23
2019-05-25T08:55:17.901Z,5.37
2019-05-25T08:57:46.734Z,5.13
2019-05-25T09:00:17.633Z,5.10
2019-05-25T09:02:47.664Z,4.73
2019-05-25T09:05:16.494Z,5.03
2019-05-25T09:07:49.486Z,6.40
2019-05-25T09:10:18.925Z,5.23
2019-05-25T09:12:49.024Z,4.90
2019-05-25T09:15:18.817Z,4.73
2019-05-25T09:17:48.802Z,5.50
2019-05-25T09:20:17.500Z,4.70
2019-05-25T09:22:46.050Z,4.50
2019-05-25T09:25:15.499Z,4.10
2019-05-25T09:27:47.405Z,4.47
2019-05-25T09:30:17.222Z,4.60
2019-05-25T09:32:45.818Z,4.90
2019-05-25T09:35:16.297Z,5.17
2019-05-25T09:37:45.563Z,4.33
2019-05-25T09:40:16.475Z,4.93
2019-05-25T09:42:45.074Z,4.63
2019-05-25T09:45:18.032Z,5.17
2019-05-25T09:47:46.582Z,4.80
2019-05-25T09:50:18.889Z,4.17
2019-05-25T09:52:49.063Z,5.50
2019-05-25T09:55:17.610Z,4.60
2019-05-25T09:57:46.165Z,4.67
2019-05-25T10:00:16.686Z,4.70
2019-05-25T10:02:45.347Z,4.60
2019-05-25T10:05:16.052Z,4.63
2019-05-25T10:07:45.571Z,4.87
2019-05-25T10:10:14.516Z,5.43
2019-05-25T10:12:43.888Z,5.80
2019-05-25T10:15:13.239Z,5.87
2019-05-25T10:17:41.761Z,5.63
2019-05-25T10:20:10.562Z,5.53
2019-05-25T10:22:39.542Z,5.53
2019-05-25T10:25:09.026Z,6.00
2019-05-25T10:27:37.493Z,5.67
2019-05-25T10:30:08.252Z,5.77
2019-05-25T10:32:38.136Z,5.50
2019-05-25T10:35:07.698Z,6.13
2019-05-25T10:37:36.466Z,6.33
2019-05-25T10:40:11.183Z,6.73
2019-05-25T10:42:39.910Z,6.50
2019-05-25T10:45:09.562Z,7.33
2019-05-25T10:47:39.507Z,7.03
2019-05-25T10:50:09.813Z,7.47
2019-05-25T10:52:38.666Z,6.93
2019-05-25T10:55:08.989Z,6.47
2019-05-25T10:57:38.155Z,6.70
2019-05-25T11:00:11.794Z,6.67
2019-05-25T11:02:40.422Z,5.97
2019-05-25T11:05:10.801Z,7.00
2019-05-25T11:07:39.408Z,6.30
2019-05-25T11:10:11.035Z,6.53
2019-05-25T11:12:45.552Z,6.80
2019-05-25T11:15:15.596Z,7.42
2019-05-25T11:17:45.696Z,7.00
2019-05-25T11:20:15.411Z,6.63
2019-05-25T11:22:44.950Z,7.30
2019-05-25T11:25:13.953Z,6.60
2019-05-25T11:27:45.243Z,6.80
2019-05-25T11:30:15.763Z,6.30
2019-05-25T11:32:44.971Z,6.20
2019-05-25T11:35:14.119Z,6.07
2019-05-25T11:37:42.592Z,5.90
2019-05-25T11:40:16.121Z,6.20
2019-05-25T11:42:44.626Z,5.80
2019-05-25T11:45:14.501Z,5.33
2019-05-25T11:47:45.045Z,5.20
2019-05-25T11:50:14.092Z,5.30
2019-05-25T11:52:43.503Z,5.10
2019-05-25T11:55:12.661Z,5.00
2019-05-25T11:57:43.359Z,5.45
2019-05-25T12:00:24.304Z,4.90
2019-05-25T12:02:47.719Z,5.23
2019-05-25T12:05:16.882Z,4.60
2019-05-25T12:07:46.908Z,3.23
2019-05-25T12:10:20.501Z,3.53
2019-05-25T12:12:49.027Z,3.87
2019-05-25T12:15:19.160Z,4.53
2019-05-25T12:17:47.696Z,4.73
2019-05-25T12:20:18.293Z,3.97
2019-05-25T12:22:46.839Z,3.90
2019-05-25T12:25:18.450Z,3.60
2019-05-25T12:27:49.259Z,4.23
2019-05-25T12:30:17.885Z,4.00
2019-05-25T12:32:46.549Z,3.50
2019-05-25T12:35:15.297Z,3.67
2019-05-25T12:37:43.763Z,3.10
2019-05-25T12:40:14.955Z,4.20
2019-05-25T12:42:45.855Z,3.50
2019-05-25T12:45:14.491Z,3.13
2019-05-25T12:47:44.673Z,3.23
2019-05-25T12:50:15.133Z,4.03
2019-05-25T12:52:44.915Z,4.33
2019-05-25T12:55:13.520Z,4.53
2019-05-25T12:57:46.843Z,4.13
2019-05-25T13:00:19.778Z,4.37
2019-05-25T13:02:48.317Z,4.37
2019-05-25T13:05:31.182Z,4.17
2019-05-25T13:07:52.629Z,3.80
2019-05-25T13:10:21.429Z,3.80
2019-05-25T13:12:51.217Z,3.27
2019-05-25T13:15:19.680Z,3.67
2019-05-25T13:17:48.302Z,4.10
2019-05-25T13:20:16.860Z,3.50
2019-05-25T13:22:45.315Z,3.50
2019-05-25T13:25:13.972Z,3.43
2019-05-25T13:27:44.039Z,3.50
2019-05-25T13:30:15.269Z,2.70
2019-05-25T13:32:43.923Z,2.98
2019-05-25T13:35:14.423Z,1.85
2019-05-25T13:37:43.159Z,3.15
2019-05-25T13:40:13.623Z,2.17
2019-05-25T13:42:42.219Z,2.70
2019-05-25T13:45:12.204Z,2.67
2019-05-25T13:47:40.728Z,3.00
2019-05-25T13:50:10.837Z,2.90
2019-05-25T13:52:39.524Z,3.80
2019-05-25T13:55:10.444Z,3.87
2019-05-25T13:57:39.132Z,2.90
2019-05-25T14:00:08.611Z,2.62
2019-05-25T14:02:40.119Z,3.05
2019-05-25T14:05:09.115Z,3.20
2019-05-25T14:07:37.616Z,4.00
2019-05-25T14:10:08.566Z,5.10
2019-05-25T14:12:37.998Z,3.63
2019-05-25T14:15:10.649Z,3.77
2019-05-25T14:17:39.154Z,4.37
2019-05-25T14:20:08.845Z,4.73
2019-05-25T14:22:39.363Z,4.93
2019-05-25T14:25:09.197Z,4.03
2019-05-25T14:27:37.720Z,4.80
2019-05-25T14:30:06.989Z,4.40
2019-05-25T14:32:37.969Z,4.17
2019-05-25T14:35:06.978Z,4.77
2019-05-25T14:37:35.561Z,4.00
2019-05-25T14:40:11.333Z,4.40
2019-05-25T14:42:38.575Z,3.40
2019-05-25T14:45:09.071Z,4.07
2019-05-25T14:47:37.597Z,4.45
2019-05-25T14:50:09.978Z,4.97
2019-05-25T14:52:43.044Z,5.10
2019-05-25T14:55:09.746Z,4.60
2019-05-25T14:57:39.641Z,5.83
2019-05-25T15:00:09.704Z,5.90
2019-05-25T15:02:38.333Z,6.42
2019-05-25T15:05:07.162Z,6.83
2019-05-25T15:07:35.809Z,5.97
2019-05-25T15:10:06.753Z,6.53
2019-05-25T15:12:35.249Z,5.53
2019-05-25T15:15:07.636Z,5.13
2019-05-25T15:17:42.969Z,5.00
2019-05-25T15:20:16.265Z,4.50
2019-05-25T15:22:46.972Z,6.28
2019-05-25T15:25:16.574Z,6.60
2019-05-25T15:27:45.967Z,6.10
2019-05-25T15:30:15.349Z,6.00
2019-05-25T15:32:44.063Z,5.20
2019-05-25T15:35:12.766Z,6.40
2019-05-25T15:37:41.313Z,6.45
2019-05-25T15:40:11.071Z,6.27
2019-05-25T15:42:40.862Z,6.93
2019-05-25T15:45:10.654Z,5.30
2019-05-25T15:47:39.287Z,6.20
2019-05-25T15:50:10.355Z,6.08
2019-05-25T15:52:40.501Z,6.90
2019-05-25T15:55:11.736Z,6.33
2019-05-25T15:57:43.722Z,6.37
2019-05-25T16:00:14.749Z,5.80
2019-05-25T16:02:43.420Z,5.77
2019-05-25T16:05:13.768Z,5.90
2019-05-25T16:07:45.401Z,5.90
2019-05-25T16:10:14.446Z,7.07
2019-05-25T16:12:45.797Z,6.60
2019-05-25T16:15:18.483Z,7.00
2019-05-25T16:17:50.043Z,7.07
2019-05-25T16:20:21.638Z,6.67
2019-05-25T16:22:51.735Z,7.00
2019-05-25T16:25:20.325Z,6.90
2019-05-25T16:27:51.272Z,6.53
2019-05-25T16:30:20.091Z,9.17
2019-05-25T16:35:19.701Z,7.70
2019-05-25T16:37:50.918Z,7.83
2019-05-25T16:40:19.750Z,7.23
2019-05-25T16:42:50.902Z,8.15
2019-05-25T16:45:24.976Z,7.67
2019-05-25T16:47:57.516Z,7.57
2019-05-25T16:50:29.017Z,7.27
2019-05-25T16:52:59.727Z,7.40
2019-05-25T16:55:30.876Z,6.90
2019-05-25T16:57:59.404Z,6.63
2019-05-25T17:00:33.077Z,6.40
2019-05-25T17:03:01.612Z,6.40
2019-05-25T17:05:30.200Z,6.43
2019-05-25T17:07:58.924Z,7.00
2019-05-25T17:10:27.564Z,6.97
2019-05-25T17:12:56.148Z,7.13
2019-05-25T17:15:27.412Z,8.13
2019-05-25T17:17:55.979Z,7.80
2019-05-25T17:20:24.574Z,7.83
2019-05-25T17:22:53.214Z,8.13
2019-05-25T17:25:23.790Z,7.97
2019-05-25T17:27:52.190Z,7.13
2019-05-25T17:30:32.439Z,3.93
2019-05-25T17:33:03.731Z,7.83
2019-05-25T17:35:32.320Z,7.47
2019-05-25T17:38:02.440Z,7.43
2019-05-25T17:40:30.930Z,8.03
2019-05-25T17:43:00.864Z,7.87
2019-05-25T17:45:29.398Z,7.73
2019-05-25T17:48:00.417Z,7.37
2019-05-25T17:50:28.902Z,7.50
2019-05-25T17:52:57.456Z,7.23
2019-05-25T17:55:26.224Z,7.60
2019-05-25T17:57:57.285Z,6.43
2019-05-25T18:00:37.934Z,6.33
2019-05-25T18:03:09.262Z,7.07
2019-05-25T18:05:37.794Z,7.60
2019-05-25T18:08:07.458Z,7.23
2019-05-25T18:10:52.258Z,7.87
2019-05-25T18:13:09.743Z,8.03
2019-05-25T18:15:41.246Z,7.62
2019-05-25T18:18:13.511Z,7.27
2019-05-25T18:20:42.115Z,6.83
2019-05-25T18:23:15.227Z,6.37
2019-05-25T18:25:44.778Z,6.33
2019-05-25T18:28:13.359Z,6.70
2019-05-25T18:30:41.862Z,6.50
2019-05-25T18:33:11.131Z,6.28
2019-05-25T18:35:39.661Z,6.67
2019-05-25T18:38:10.052Z,6.93
2019-05-25T18:40:38.506Z,6.33
2019-05-25T18:43:06.731Z,6.92
2019-05-25T18:45:38.357Z,6.47
2019-05-25T18:48:08.167Z,7.23
2019-05-25T18:50:36.770Z,6.70
2019-05-25T18:53:08.348Z,6.30
2019-05-25T18:55:36.894Z,7.03
2019-05-25T18:58:05.643Z,6.85
2019-05-25T19:00:34.197Z,6.90
2019-05-25T19:03:05.085Z,6.90
2019-05-25T19:05:33.566Z,7.30
2019-05-25T19:08:02.205Z,8.73
2019-05-25T19:10:31.977Z,8.10
2019-05-25T19:13:01.461Z,9.28
2019-05-25T19:15:29.953Z,8.90
2019-05-25T19:17:58.428Z,8.00
2019-05-25T19:20:26.991Z,7.97
2019-05-25T19:22:56.601Z,8.60
2019-05-25T19:25:25.236Z,9.20
2019-05-25T19:27:53.792Z,8.03
2019-05-25T19:30:23.897Z,8.87
2019-05-25T19:32:55.649Z,9.27
2019-05-25T19:35:24.195Z,8.47
2019-05-25T19:37:54.282Z,9.03
2019-05-25T19:40:23.079Z,9.30
2019-05-25T19:42:51.649Z,8.37
2019-05-25T19:45:20.461Z,8.67
2019-05-25T19:47:48.921Z,8.78
2019-05-25T19:50:19.105Z,9.17
2019-05-25T19:52:48.822Z,9.27
2019-05-25T19:55:17.509Z,8.77
2019-05-25T19:57:47.125Z,9.37
2019-05-25T20:00:16.057Z,9.47
2019-05-25T20:02:44.521Z,9.77
2019-05-25T20:05:16.767Z,10.23
2019-05-25T20:07:45.090Z,10.30
2019-05-25T20:10:14.973Z,11.50
2019-05-25T20:12:43.612Z,11.20
2019-05-25T20:15:12.561Z,10.37
2019-05-25T20:17:41.166Z,10.60
2019-05-25T20:20:10.881Z,9.80
2019-05-25T20:22:39.563Z,9.40
2019-05-25T20:25:10.158Z,9.27
2019-05-25T20:27:39.608Z,9.17
2019-05-25T20:30:08.799Z,8.73
2019-05-25T20:32:38.679Z,9.75
2019-05-25T20:35:08.582Z,9.87
2019-05-25T20:37:37.160Z,9.68
2019-05-25T20:40:07.771Z,9.47
2019-05-25T20:42:36.490Z,8.90
2019-05-25T20:45:07.519Z,8.97
2019-05-25T20:47:39.955Z,10.70
2019-05-25T20:50:09.764Z,9.70
2019-05-25T20:52:39.949Z,9.28
2019-05-25T20:55:08.903Z,9.37
2019-05-25T20:57:38.922Z,9.43
2019-05-25T21:00:10.134Z,9.93
2019-05-25T21:02:38.962Z,9.73
2019-05-25T21:05:10.402Z,10.18
2019-05-25T21:07:38.956Z,9.90
2019-05-25T21:10:13.328Z,10.40
2019-05-25T21:12:42.010Z,9.73
2019-05-25T21:15:12.597Z,10.40
2019-05-25T21:17:41.084Z,11.43
2019-05-25T21:20:13.326Z,10.73
2019-05-25T21:22:42.175Z,11.07
2019-05-25T21:25:11.333Z,11.97
2019-05-25T21:27:41.284Z,11.53
2019-05-25T21:30:10.215Z,11.70
2019-05-25T21:32:41.460Z,11.33
2019-05-25T21:35:10.542Z,12.20
2019-05-25T21:37:40.871Z,11.23
2019-05-25T21:40:10.374Z,12.20
2019-05-25T21:42:40.362Z,11.70
2019-05-25T21:45:09.710Z,12.77
2019-05-25T21:47:39.847Z,13.13
2019-05-25T21:50:10.115Z,12.20
2019-05-25T21:52:38.885Z,13.17
2019-05-25T21:55:08.070Z,12.90
2019-05-25T21:57:36.614Z,11.70
2019-05-25T22:00:11.303Z,11.80
2019-05-25T22:02:39.841Z,12.97
2019-05-25T22:05:09.567Z,14.25
2019-05-25T22:07:40.792Z,12.93
2019-05-25T22:10:10.995Z,13.30
2019-05-25T22:12:42.086Z,13.40
2019-05-25T22:15:12.211Z,12.63
2019-05-25T22:17:40.701Z,12.63
2019-05-25T22:20:11.832Z,13.07
2019-05-25T22:22:40.549Z,13.50
2019-05-25T22:25:09.536Z,12.97
2019-05-25T22:27:41.340Z,12.83
2019-05-25T22:30:10.171Z,13.23
2019-05-25T22:32:40.036Z,13.67
2019-05-25T22:35:08.739Z,13.67
2019-05-25T22:37:38.275Z,14.43
2019-05-25T22:40:07.688Z,13.57
2019-05-25T22:42:37.244Z,14.03
2019-05-25T22:45:07.880Z,13.57
2019-05-25T22:47:37.995Z,14.30
2019-05-25T22:50:07.310Z,14.40
2019-05-25T22:52:38.644Z,15.27
2019-05-25T22:55:11.882Z,14.93
2019-05-25T22:57:40.398Z,15.30
2019-05-25T23:00:11.311Z,16.02
2019-05-25T23:02:39.970Z,16.37
2019-05-25T23:05:10.600Z,16.80
2019-05-25T23:07:40.511Z,16.80
2019-05-25T23:10:10.713Z,16.73
2019-05-25T23:12:39.193Z,17.20
2019-05-25T23:15:09.637Z,16.97
2019-05-25T23:17:38.516Z,16.20
2019-05-25T23:20:08.140Z,16.53
2019-05-25T23:22:36.864Z,17.13
2019-05-25T23:25:08.199Z,18.37
2019-05-25T23:27:41.020Z,16.93
2019-05-25T23:30:10.873Z,17.40
2019-05-25T23:32:39.515Z,17.10
2019-05-25T23:35:08.485Z,18.07
2019-05-25T23:37:38.434Z,17.77
2019-05-25T23:40:10.298Z,17.43
2019-05-25T23:42:38.840Z,17.93
2019-05-25T23:45:11.774Z,17.60
2019-05-25T23:47:40.255Z,17.15
2019-05-25T23:50:13.573Z,16.60
2019-05-25T23:52:42.157Z,17.30
2019-05-25T23:55:12.499Z,17.53
2019-05-25T23:57:40.970Z,18.60
